Time;durP1;ratioP1;P1;durP2;ratioP2;P2;SDS_P1;SDS_P2;PMS_P1;PMS_P2;Temp;Humidity;BMP_temperature;BMP_pressure;BME280_temperature;BME280_humidity;BME280_pressure;Samples;Min_cycle;Max_cycle;Signal;HPM_P1;HPM_P2
2023/05/23 00:02:37;;;;;;;5.05;2.80;;;;;;;;;;13002646;19;20034;-65
2023/05/23 00:06:55;;;;;;;6.25;2.38;;;;;;;;;;13001331;19;20014;-65
2023/05/23 00:11:14;;;;;;;3.75;2.25;;;;;;;;;;13001675;19;20338;-65
2023/05/23 00:15:32;;;;;;;3.80;2.53;;;;;;;;;;13000880;19;20007;-65
2023/05/23 00:19:50;;;;;;;4.13;2.33;;;;;;;;;;13001933;19;20002;-66
2023/05/23 00:24:09;;;;;;;5.00;2.50;;;;;;;;;;13000351;19;20022;-66
2023/05/23 00:28:27;;;;;;;3.65;2.63;;;;;;;;;;13000667;19;20009;-65
2023/05/23 00:32:46;;;;;;;3.53;2.33;;;;;;;;;;13000741;19;20018;-65
2023/05/23 00:37:03;;;;;;;3.13;2.20;;;;;;;;;;12997366;19;20010;-65
2023/05/23 00:41:24;;;;;;;8.45;2.55;;;;;;;;;;12999732;19;20009;-65
2023/05/23 00:45:42;;;;;;;3.92;2.38;;;;;;;;;;13001007;19;20011;-65
2023/05/23 00:50:00;;;;;;;3.03;2.10;;;;;;;;;;12999689;19;20029;-66
2023/05/23 00:54:30;;;;;;;3.17;2.08;;;;;;;;;;12998533;19;20119;-65
2023/05/23 00:58:49;;;;;;;4.03;2.45;;;;;;;;;;12999643;19;20025;-65
2023/05/23 01:03:07;;;;;;;;;;;;;;;;;;13000367;19;20006;-65
2023/05/23 01:07:26;;;;;;;3.05;2.22;;;;;;;;;;12998520;19;19917;-65
2023/05/23 01:11:58;;;;;;;4.53;2.60;;;;;;;;;;12997960;19;20009;-65
2023/05/23 01:16:37;;;;;;;4.45;2.40;;;;;;;;;;12996053;19;20010;-65
2023/05/23 01:21:01;;;;;;;3.20;2.50;;;;;;;;;;13007582;19;20010;-65
2023/05/23 01:26:12;;;;;;;5.18;2.65;;;;;;;;;;13008024;19;20018;-65
2023/05/23 01:30:34;;;;;;;10.77;2.70;;;;;;;;;;13009670;19;20007;-66
2023/05/23 01:34:53;;;;;;;3.72;2.08;;;;;;;;;;13007623;19;20010;-65
2023/05/23 01:39:11;;;;;;;3.38;2.40;;;;;;;;;;13007153;19;20043;-67
2023/05/23 01:43:29;;;;;;;4.18;2.13;;;;;;;;;;13008432;19;20014;-66
2023/05/23 01:47:49;;;;;;;8.13;2.40;;;;;;;;;;13009237;19;20485;-66
2023/05/23 01:52:10;;;;;;;5.20;2.60;;;;;;;;;;13006545;19;20350;-67
2023/05/23 01:56:29;;;;;;;4.97;2.50;;;;;;;;;;13007980;19;20010;-65
2023/05/23 02:00:46;;;;;;;4.68;2.85;;;;;;;;;;13008487;19;20011;-66
2023/05/23 02:05:05;;;;;;;3.58;2.28;;;;;;;;;;13007308;19;20030;-65
2023/05/23 02:09:23;;;;;;;;;;;;;;;;;;13008050;19;20010;-65
2023/05/23 02:13:41;;;;;;;4.63;2.50;;;;;;;;;;13007397;19;19910;-65
2023/05/23 02:18:01;;;;;;;;;;;;;;;;;;13008355;19;20026;-65
2023/05/23 02:22:26;;;;;;;3.75;2.40;;;;;;;;;;13005308;19;19922;-66
2023/05/23 02:26:43;;;;;;;4.78;2.53;;;;;;;;;;13006898;19;20014;-65
2023/05/23 02:31:02;;;;;;;5.78;2.33;;;;;;;;;;13004475;19;20485;-65
2023/05/23 02:35:21;;;;;;;4.32;2.35;;;;;;;;;;13005444;19;20037;-67
2023/05/23 02:39:38;;;;;;;;;;;;;;;;;;13006812;19;20017;-65
2023/05/23 02:43:57;;;;;;;5.78;2.90;;;;;;;;;;13005440;19;20007;-65
2023/05/23 02:48:15;;;;;;;3.30;2.47;;;;;;;;;;13005066;19;20041;-65
2023/05/23 02:52:34;;;;;;;3.05;2.00;;;;;;;;;;13005525;19;20017;-67
2023/05/23 02:56:53;;;;;;;4.97;3.08;;;;;;;;;;13005058;19;20041;-65
2023/05/23 03:01:11;;;;;;;3.97;2.45;;;;;;;;;;13004336;19;20038;-65
2023/05/23 03:05:28;;;;;;;4.40;2.40;;;;;;;;;;13004744;19;20045;-66
2023/05/23 03:09:46;;;;;;;5.65;2.70;;;;;;;;;;13004321;19;20010;-65
2023/05/23 03:14:04;;;;;;;4.85;2.67;;;;;;;;;;13003047;19;20014;-65
2023/05/23 03:18:23;;;;;;;3.72;2.22;;;;;;;;;;13004049;19;20469;-66
2023/05/23 03:22:44;;;;;;;4.28;2.42;;;;;;;;;;13003442;19;20472;-65
2023/05/23 03:27:03;;;;;;;5.22;2.58;;;;;;;;;;13003066;19;20034;-65
2023/05/23 03:31:21;;;;;;;6.90;2.42;;;;;;;;;;13003180;19;20038;-65
2023/05/23 03:35:39;;;;;;;2.90;2.30;;;;;;;;;;13003525;19;20465;-65
2023/05/23 03:39:58;;;;;;;9.68;2.60;;;;;;;;;;13002475;19;20465;-65
2023/05/23 03:44:15;;;;;;;5.68;2.03;;;;;;;;;;12999798;19;20038;-65
2023/05/23 03:48:33;;;;;;;;;;;;;;;;;;13003558;19;20477;-65
2023/05/23 03:52:53;;;;;;;4.53;2.33;;;;;;;;;;13002260;19;19921;-65
2023/05/23 03:57:10;;;;;;;3.50;2.38;;;;;;;;;;13000570;19;20349;-66
2023/05/23 04:01:29;;;;;;;8.70;2.33;;;;;;;;;;13001439;19;20014;-65
2023/05/23 04:05:48;;;;;;;10.00;2.97;;;;;;;;;;13001262;19;20006;-66
2023/05/23 04:10:06;;;;;;;;;;;;;;;;;;13001091;19;20015;-65
2023/05/23 04:14:25;;;;;;;5.22;2.85;;;;;;;;;;13001138;19;19907;-66
2023/05/23 04:18:46;;;;;;;6.32;2.63;;;;;;;;;;13000882;19;20471;-66
2023/05/23 04:23:03;;;;;;;3.78;2.35;;;;;;;;;;12999712;19;20355;-66
2023/05/23 04:27:24;;;;;;;5.25;2.55;;;;;;;;;;13000585;19;20045;-66
2023/05/23 04:31:44;;;;;;;6.85;2.80;;;;;;;;;;13001504;19;20114;-66
2023/05/23 04:36:04;;;;;;;3.53;2.53;;;;;;;;;;12999726;19;20362;-66
2023/05/23 04:40:23;;;;;;;5.65;2.20;;;;;;;;;;13000571;19;20034;-65
2023/05/23 04:44:41;;;;;;;4.40;2.05;;;;;;;;;;12999926;19;20010;-65
2023/05/23 04:49:02;;;;;;;3.17;2.38;;;;;;;;;;12999473;19;20010;-66
2023/05/23 04:53:23;;;;;;;3.83;2.30;;;;;;;;;;13005794;19;20038;-65
2023/05/23 04:57:42;;;;;;;3.53;2.20;;;;;;;;;;13011513;19;20026;-66
2023/05/23 05:01:59;;;;;;;3.00;2.03;;;;;;;;;;13012093;19;20475;-65
2023/05/23 05:06:20;;;;;;;3.65;2.60;;;;;;;;;;13011959;19;20004;-66
2023/05/23 05:10:39;;;;;;;3.97;2.38;;;;;;;;;;13011670;19;20021;-65
2023/05/23 05:14:57;;;;;;;4.88;2.05;;;;;;;;;;13010712;19;20014;-66
2023/05/23 05:19:16;;;;;;;4.85;2.58;;;;;;;;;;13010762;19;19998;-66
2023/05/23 05:23:35;;;;;;;;;;;;;;;;;;13012559;19;20010;-65
2023/05/23 05:27:52;;;;;;;2.85;1.88;;;;;;;;;;13010876;19;19915;-66
2023/05/23 05:32:10;;;;;;;5.03;2.53;;;;;;;;;;13010607;19;20007;-65
2023/05/23 05:36:28;;;;;;;;;;;;;;;;;;13009826;19;20010;-66
2023/05/23 05:40:46;;;;;;;3.63;2.17;;;;;;;;;;13009352;19;19911;-66
2023/05/23 05:45:05;;;;;;;3.47;1.95;;;;;;;;;;13007868;19;20348;-65
2023/05/23 05:49:23;;;;;;;4.05;2.13;;;;;;;;;;13010772;19;20029;-68
2023/05/23 05:53:41;;;;;;;5.82;2.30;;;;;;;;;;13010026;19;20010;-65
2023/05/23 05:57:58;;;;;;;5.70;2.20;;;;;;;;;;13009299;19;20013;-65
2023/05/23 06:02:17;;;;;;;2.80;1.80;;;;;;;;;;13008744;19;20378;-65
2023/05/23 06:06:35;;;;;;;3.22;1.98;;;;;;;;;;13007189;19;20007;-65
2023/05/23 06:10:55;;;;;;;3.67;2.10;;;;;;;;;;13008323;19;20015;-66
2023/05/23 06:15:14;;;;;;;10.55;2.28;;;;;;;;;;13006821;19;20034;-66
2023/05/23 06:19:33;;;;;;;4.18;2.08;;;;;;;;;;13008667;19;20014;-65
2023/05/23 06:23:53;;;;;;;6.72;2.63;;;;;;;;;;13007856;19;20011;-66
2023/05/23 06:28:11;;;;;;;3.63;1.80;;;;;;;;;;13007285;19;20018;-65
2023/05/23 06:32:29;;;;;;;2.72;1.60;;;;;;;;;;13007419;19;20342;-66
2023/05/23 06:36:47;;;;;;;8.23;2.05;;;;;;;;;;13006750;19;20010;-66
2023/05/23 06:41:06;;;;;;;3.97;2.15;;;;;;;;;;13005639;19;20022;-66
2023/05/23 06:45:23;;;;;;;3.20;2.03;;;;;;;;;;13007294;19;20018;-65
2023/05/23 06:49:42;;;;;;;3.33;1.98;;;;;;;;;;13006535;19;20492;-65
2023/05/23 06:54:00;;;;;;;;;;;;;;;;;;13007210;19;20358;-65
2023/05/23 06:58:21;;;;;;;3.88;2.08;;;;;;;;;;13005388;19;19914;-66
2023/05/23 07:02:38;;;;;;;3.70;2.15;;;;;;;;;;13006116;19;20014;-66
2023/05/23 07:06:58;;;;;;;2.72;1.55;;;;;;;;;;13005803;19;20013;-66
2023/05/23 07:11:16;;;;;;;4.75;2.33;;;;;;;;;;13004772;19;20002;-66
2023/05/23 07:15:35;;;;;;;2.90;1.60;;;;;;;;;;13004065;19;20010;-65
2023/05/23 07:19:52;;;;;;;;;;;;;;;;;;13005533;19;20003;-65
2023/05/23 07:24:10;;;;;;;3.25;2.22;;;;;;;;;;13004960;19;19910;-65
2023/05/23 07:28:28;;;;;;;;;;;;;;;;;;13005782;19;20461;-65
2023/05/23 07:32:48;;;;;;;3.22;1.70;;;;;;;;;;13004810;19;19925;-65
2023/05/23 07:37:05;;;;;;;;;;;;;;;;;;13003767;19;20018;-65
2023/05/23 07:41:24;;;;;;;7.00;2.08;;;;;;;;;;13003225;19;19946;-66
2023/05/23 07:45:42;;;;;;;3.50;1.80;;;;;;;;;;13003945;19;20344;-66
2023/05/23 07:50:05;;;;;;;2.40;1.50;;;;;;;;;;13002501;19;20025;-65
2023/05/23 07:54:23;;;;;;;2.97;1.80;;;;;;;;;;13003854;19;20496;-66
2023/05/23 07:58:41;;;;;;;3.70;1.85;;;;;;;;;;13003129;19;20015;-65
2023/05/23 08:02:59;;;;;;;2.53;1.65;;;;;;;;;;13002960;19;20345;-66
2023/05/23 08:07:18;;;;;;;2.80;1.77;;;;;;;;;;13002796;19;20465;-66
2023/05/23 08:11:35;;;;;;;;;;;;;;;;;;13003504;19;20021;-65
2023/05/23 08:15:53;;;;;;;1.80;1.27;;;;;;;;;;13002510;19;19937;-66
2023/05/23 08:20:12;;;;;;;1.77;1.63;;;;;;;;;;13001669;19;20011;-66
2023/05/23 08:24:30;;;;;;;;;;;;;;;;;;13002801;19;20025;-67
2023/05/23 08:28:48;;;;;;;4.13;2.08;;;;;;;;;;13008219;19;19918;-66
2023/05/23 08:33:06;;;;;;;6.72;1.85;;;;;;;;;;13013479;19;20006;-67
2023/05/23 08:37:25;;;;;;;4.63;1.85;;;;;;;;;;13013489;19;20010;-66
2023/05/23 08:41:43;;;;;;;4.32;1.90;;;;;;;;;;13013073;19;20029;-65
2023/05/23 08:46:03;;;;;;;2.75;1.55;;;;;;;;;;13013468;19;20002;-66
2023/05/23 08:50:21;;;;;;;4.65;1.67;;;;;;;;;;13013447;19;20007;-66
2023/05/23 08:54:41;;;;;;;7.43;1.67;;;;;;;;;;13012954;19;20468;-67
2023/05/23 08:58:59;;;;;;;4.45;1.45;;;;;;;;;;13012747;19;20441;-66
2023/05/23 09:03:18;;;;;;;3.05;1.90;;;;;;;;;;13011985;19;20086;-65
2023/05/23 09:07:36;;;;;;;2.53;1.48;;;;;;;;;;13012721;19;20014;-66
2023/05/23 09:11:58;;;;;;;3.13;2.10;;;;;;;;;;13012545;19;20455;-65
2023/05/23 09:16:18;;;;;;;3.40;1.85;;;;;;;;;;13011757;19;20011;-65
2023/05/23 09:20:39;;;;;;;2.75;1.85;;;;;;;;;;13011446;19;20003;-66
2023/05/23 09:24:59;;;;;;;3.92;1.77;;;;;;;;;;13012456;19;20018;-66
2023/05/23 09:29:21;;;;;;;2.50;1.38;;;;;;;;;;13011607;19;20010;-66
2023/05/23 09:33:45;;;;;;;3.22;1.42;;;;;;;;;;13011335;19;20350;-65
2023/05/23 09:38:06;;;;;;;3.95;1.10;;;;;;;;;;13008603;19;20039;-65
2023/05/23 09:42:24;;;;;;;4.43;2.03;;;;;;;;;;13005904;19;20078;-66
2023/05/23 09:46:43;;;;;;;3.72;2.38;;;;;;;;;;13010294;19;20014;-65
2023/05/23 09:51:08;;;;;;;3.72;1.77;;;;;;;;;;13009207;19;20019;-66
2023/05/23 09:55:26;;;;;;;5.95;1.58;;;;;;;;;;13009605;19;20021;-66
2023/05/23 09:59:54;;;;;;;2.35;1.52;;;;;;;;;;13009620;19;20017;-66
2023/05/23 10:04:15;;;;;;;2.85;1.70;;;;;;;;;;13008677;19;20361;-65
2023/05/23 10:08:42;;;;;;;5.55;1.77;;;;;;;;;;13009459;19;20003;-66
2023/05/23 10:13:04;;;;;;;2.67;1.30;;;;;;;;;;13008997;19;20002;-66
2023/05/23 10:17:33;;;;;;;3.88;1.98;;;;;;;;;;13007786;19;20014;-66
2023/05/23 10:22:01;;;;;;;1.90;1.45;;;;;;;;;;13007278;19;20010;-66
2023/05/23 10:26:20;;;;;;;1.90;1.27;;;;;;;;;;13008381;19;20022;-65
2023/05/23 10:30:39;;;;;;;3.42;1.85;;;;;;;;;;13006147;19;19999;-65
2023/05/23 10:35:10;;;;;;;3.88;2.40;;;;;;;;;;13006148;19;20346;-65
2023/05/23 10:39:56;;;;;;;2.65;1.67;;;;;;;;;;13006094;19;20014;-65
2023/05/23 10:44:29;;;;;;;4.35;1.80;;;;;;;;;;13004664;19;20466;-65
2023/05/23 10:48:56;;;;;;;1.88;1.40;;;;;;;;;;13006622;19;20006;-66
2023/05/23 10:53:15;;;;;;;2.10;1.30;;;;;;;;;;13005582;19;20034;-66
2023/05/23 10:57:33;;;;;;;6.55;2.47;;;;;;;;;;13005508;19;20005;-66
2023/05/23 11:01:52;;;;;;;1.80;1.40;;;;;;;;;;13006024;19;20010;-66
2023/05/23 11:06:31;;;;;;;3.97;1.42;;;;;;;;;;13004935;19;20011;-67
2023/05/23 11:11:00;;;;;;;2.85;1.77;;;;;;;;;;13005687;19;20007;-66
2023/05/23 11:15:20;;;;;;;3.85;1.52;;;;;;;;;;13005870;19;20010;-66
2023/05/23 11:19:39;;;;;;;2.78;1.58;;;;;;;;;;13005753;19;20018;-65
2023/05/23 11:23:57;;;;;;;5.88;1.67;;;;;;;;;;13005008;19;20003;-65
2023/05/23 11:28:16;;;;;;;2.35;1.40;;;;;;;;;;13004205;19;20021;-65
2023/05/23 11:32:36;;;;;;;3.08;1.92;;;;;;;;;;13005058;19;20074;-66
2023/05/23 11:36:55;;;;;;;4.32;1.80;;;;;;;;;;13003415;19;20007;-65
2023/05/23 11:41:13;;;;;;;3.83;1.63;;;;;;;;;;13002864;19;20045;-65
2023/05/23 11:45:32;;;;;;;2.70;1.20;;;;;;;;;;13003766;19;20432;-66
2023/05/23 11:49:51;;;;;;;2.03;1.55;;;;;;;;;;13003541;19;20017;-65
2023/05/23 11:54:08;;;;;;;4.20;1.52;;;;;;;;;;13002403;19;20002;-65
2023/05/23 11:58:34;;;;;;;3.03;1.77;;;;;;;;;;13001002;19;20006;-65
2023/05/23 12:02:53;;;;;;;7.28;1.50;;;;;;;;;;13000352;19;20037;-66
2023/05/23 12:07:11;;;;;;;5.40;2.33;;;;;;;;;;13001046;19;20399;-66
2023/05/23 12:11:34;;;;;;;3.03;1.67;;;;;;;;;;13002668;19;20003;-66
2023/05/23 12:15:58;;;;;;;1.75;1.33;;;;;;;;;;13002302;19;20002;-65
2023/05/23 12:20:18;;;;;;;3.05;1.90;;;;;;;;;;13002638;19;20019;-65
2023/05/23 12:24:45;;;;;;;4.75;1.73;;;;;;;;;;13000421;19;20022;-66
2023/05/23 12:29:03;;;;;;;1.60;1.08;;;;;;;;;;13000946;19;20131;-65
2023/05/23 12:33:24;;;;;;;2.55;1.55;;;;;;;;;;12999854;19;20003;-66
2023/05/23 12:37:47;;;;;;;2.42;1.73;;;;;;;;;;13000828;19;20326;-65
2023/05/23 12:42:08;;;;;;;3.30;1.70;;;;;;;;;;12999908;19;20050;-66
2023/05/23 12:46:26;;;;;;;5.38;1.45;;;;;;;;;;12996662;19;20018;-65
2023/05/23 12:50:44;;;;;;;2.80;1.60;;;;;;;;;;13000364;19;20009;-65
2023/05/23 12:55:04;;;;;;;2.25;1.42;;;;;;;;;;12999266;19;20015;-65
2023/05/23 12:59:22;;;;;;;3.42;1.40;;;;;;;;;;12999683;19;20033;-66
2023/05/23 13:03:40;;;;;;;3.45;1.42;;;;;;;;;;12999580;19;20011;-65
2023/05/23 13:07:59;;;;;;;2.45;1.48;;;;;;;;;;12999589;19;20010;-65
2023/05/23 13:12:17;;;;;;;3.25;1.63;;;;;;;;;;12998922;19;20366;-66
2023/05/23 13:16:35;;;;;;;2.95;1.58;;;;;;;;;;13010719;19;20480;-66
2023/05/23 13:20:54;;;;;;;2.15;1.40;;;;;;;;;;13012365;19;20009;-66
2023/05/23 13:25:12;;;;;;;2.30;1.60;;;;;;;;;;13009800;19;20536;-66
2023/05/23 13:29:30;;;;;;;2.65;1.60;;;;;;;;;;13010836;19;20017;-65
2023/05/23 13:33:48;;;;;;;4.15;1.92;;;;;;;;;;13011399;19;20021;-66
2023/05/23 13:38:08;;;;;;;5.57;1.88;;;;;;;;;;13009819;19;20002;-65
2023/05/23 13:42:26;;;;;;;3.05;1.75;;;;;;;;;;13009580;19;20010;-65
2023/05/23 13:46:44;;;;;;;1.88;1.65;;;;;;;;;;13009576;19;20334;-65
2023/05/23 13:51:03;;;;;;;4.13;1.77;;;;;;;;;;13009665;19;20062;-65
2023/05/23 13:55:21;;;;;;;6.93;2.70;;;;;;;;;;13007757;19;20049;-66
2023/05/23 13:59:39;;;;;;;8.95;3.25;;;;;;;;;;13009289;19;20399;-65
2023/05/23 14:03:58;;;;;;;5.63;3.05;;;;;;;;;;13009583;19;20023;-66
2023/05/23 14:08:15;;;;;;;9.93;3.28;;;;;;;;;;13008312;19;20030;-65
2023/05/23 14:12:34;;;;;;;13.65;3.35;;;;;;;;;;13008641;19;20022;-65
2023/05/23 14:16:52;;;;;;;;;;;;;;;;;;13008911;19;20037;-66
2023/05/23 14:21:10;;;;;;;8.18;3.05;;;;;;;;;;13007153;19;19941;-65
2023/05/23 14:25:29;;;;;;;5.25;2.53;;;;;;;;;;13005751;19;20361;-65
2023/05/23 14:29:48;;;;;;;8.65;3.38;;;;;;;;;;13007821;19;20006;-65
2023/05/23 14:34:07;;;;;;;5.35;2.95;;;;;;;;;;13007322;19;20014;-66
2023/05/23 14:38:25;;;;;;;3.92;2.47;;;;;;;;;;13007755;19;20011;-67
2023/05/23 14:42:44;;;;;;;7.82;3.00;;;;;;;;;;13007068;19;20018;-68
2023/05/23 14:47:03;;;;;;;5.80;2.80;;;;;;;;;;13006260;19;20098;-66
2023/05/23 14:51:21;;;;;;;;;;;;;;;;;;13007036;19;21117;-67
2023/05/23 14:55:59;;;;;;;5.45;2.85;;;;;;;;;;13005005;19;19910;-66
2023/05/23 15:00:18;;;;;;;;;;;;;;;;;;13005618;19;20011;-65
2023/05/23 15:04:36;;;;;;;3.30;2.00;;;;;;;;;;13005957;19;20330;-66
2023/05/23 15:08:55;;;;;;;18.73;2.78;;;;;;;;;;13006341;19;20029;-67
2023/05/23 15:13:13;;;;;;;7.60;2.83;;;;;;;;;;13004551;19;20017;-66
2023/05/23 15:17:32;;;;;;;5.00;2.78;;;;;;;;;;13004264;19;20456;-66
2023/05/23 15:21:51;;;;;;;10.88;3.05;;;;;;;;;;13004709;19;20018;-66
2023/05/23 15:26:09;;;;;;;7.82;4.38;;;;;;;;;;13002235;19;20015;-66
2023/05/23 15:30:27;;;;;;;6.78;3.67;;;;;;;;;;13002656;19;20018;-66
2023/05/23 15:34:45;;;;;;;9.07;4.18;;;;;;;;;;13004178;19;20339;-66
2023/05/23 15:39:05;;;;;;;4.93;3.60;;;;;;;;;;12999778;19;20014;-65
2023/05/23 15:43:24;;;;;;;9.68;3.65;;;;;;;;;;13003503;19;20015;-65
2023/05/23 15:47:43;;;;;;;6.70;3.45;;;;;;;;;;13003564;19;19998;-68
2023/05/23 15:52:00;;;;;;;;;;;;;;;;;;13003688;19;20009;-65
2023/05/23 15:56:18;;;;;;;6.65;2.80;;;;;;;;;;13003092;19;19910;-65
2023/05/23 16:00:36;;;;;;;5.47;2.88;;;;;;;;;;13003448;19;20013;-65
2023/05/23 16:04:56;;;;;;;6.80;3.15;;;;;;;;;;13002658;19;20315;-65
2023/05/23 16:09:14;;;;;;;6.38;3.47;;;;;;;;;;13001644;19;20124;-66
2023/05/23 16:13:32;;;;;;;9.02;4.28;;;;;;;;;;13001945;19;20311;-65
2023/05/23 16:17:50;;;;;;;9.30;3.65;;;;;;;;;;13001185;19;20030;-67
2023/05/23 16:22:09;;;;;;;7.30;3.67;;;;;;;;;;13000954;19;20017;-66
2023/05/23 16:26:27;;;;;;;5.72;3.95;;;;;;;;;;13001712;19;20019;-66
2023/05/23 16:30:46;;;;;;;6.60;4.07;;;;;;;;;;13001507;19;20025;-66
2023/05/23 16:35:07;;;;;;;5.28;3.50;;;;;;;;;;13000627;19;20030;-67
2023/05/23 16:39:24;;;;;;;5.82;3.80;;;;;;;;;;13000231;19;20525;-65
2023/05/23 16:43:43;;;;;;;11.93;3.85;;;;;;;;;;13000010;19;20007;-65
2023/05/23 16:48:01;;;;;;;6.05;3.80;;;;;;;;;;13000951;19;20006;-66
2023/05/23 16:52:20;;;;;;;9.35;3.78;;;;;;;;;;13013505;19;20015;-66
2023/05/23 16:56:37;;;;;;;6.35;3.38;;;;;;;;;;13012750;19;20114;-66
2023/05/23 17:00:57;;;;;;;9.25;3.35;;;;;;;;;;13012444;19;20013;-65
2023/05/23 17:05:16;;;;;;;9.20;4.07;;;;;;;;;;13011761;19;20036;-65
2023/05/23 17:09:37;;;;;;;7.72;3.45;;;;;;;;;;13012376;19;20014;-65
2023/05/23 17:13:57;;;;;;;6.57;3.42;;;;;;;;;;13012618;19;20110;-66
2023/05/23 17:18:15;;;;;;;6.68;3.38;;;;;;;;;;13010565;19;20018;-66
2023/05/23 17:22:33;;;;;;;6.43;3.55;;;;;;;;;;13011318;19;20003;-66
2023/05/23 17:26:51;;;;;;;6.97;3.45;;;;;;;;;;13012063;19;20026;-65
2023/05/23 17:31:10;;;;;;;8.00;3.58;;;;;;;;;;13010602;19;20109;-66
2023/05/23 17:35:33;;;;;;;6.15;3.30;;;;;;;;;;13010901;19;20010;-66
2023/05/23 17:39:51;;;;;;;5.28;3.83;;;;;;;;;;13010080;19;20345;-66
2023/05/23 17:44:13;;;;;;;7.47;3.45;;;;;;;;;;13009305;19;20013;-66
2023/05/23 17:48:31;;;;;;;;;;;;;;;;;;13010486;19;20021;-66
2023/05/23 17:53:05;;;;;;;9.20;4.32;;;;;;;;;;13009588;19;19918;-66
2023/05/23 17:57:23;;;;;;;9.02;4.22;;;;;;;;;;13009952;19;20041;-66
2023/05/23 18:01:42;;;;;;;7.32;3.78;;;;;;;;;;13007373;19;20484;-66
2023/05/23 18:06:00;;;;;;;8.98;4.03;;;;;;;;;;13009506;19;20324;-66
2023/05/23 18:10:19;;;;;;;10.52;4.70;;;;;;;;;;13009115;19;20354;-65
2023/05/23 18:14:38;;;;;;;10.55;4.18;;;;;;;;;;13009136;19;20011;-65
2023/05/23 18:18:58;;;;;;;6.68;3.85;;;;;;;;;;13007968;19;20077;-67
2023/05/23 18:23:16;;;;;;;9.70;4.30;;;;;;;;;;13007763;19;20017;-66
2023/05/23 18:27:34;;;;;;;10.32;5.20;;;;;;;;;;13008308;19;20010;-65
2023/05/23 18:31:53;;;;;;;20.35;9.07;;;;;;;;;;13006994;19;20014;-65
2023/05/23 18:36:11;;;;;;;12.25;6.60;;;;;;;;;;13006704;19;20002;-65
2023/05/23 18:40:30;;;;;;;11.95;5.97;;;;;;;;;;13006924;19;20006;-66
2023/05/23 18:44:48;;;;;;;8.60;5.80;;;;;;;;;;13006571;19;20485;-65
2023/05/23 18:49:07;;;;;;;8.63;4.90;;;;;;;;;;13005841;19;20027;-65
2023/05/23 18:53:27;;;;;;;13.65;6.60;;;;;;;;;;13006675;19;20021;-66
2023/05/23 18:57:45;;;;;;;11.70;6.93;;;;;;;;;;13006226;19;20015;-66
2023/05/23 19:02:03;;;;;;;10.80;6.30;;;;;;;;;;13005474;19;20007;-65
2023/05/23 19:06:21;;;;;;;8.10;4.68;;;;;;;;;;13005776;19;20034;-65
2023/05/23 19:10:41;;;;;;;11.63;4.95;;;;;;;;;;13005171;19;20421;-66
2023/05/23 19:14:59;;;;;;;8.95;5.10;;;;;;;;;;13005274;19;20018;-65
2023/05/23 19:19:20;;;;;;;10.48;4.47;;;;;;;;;;13004446;19;20011;-65
2023/05/23 19:23:38;;;;;;;12.13;7.63;;;;;;;;;;13004898;19;20007;-65
2023/05/23 19:27:56;;;;;;;11.73;6.20;;;;;;;;;;13005292;19;20033;-65
2023/05/23 19:32:14;;;;;;;10.98;5.65;;;;;;;;;;13004076;19;20025;-66
2023/05/23 19:36:35;;;;;;;10.55;5.75;;;;;;;;;;13004414;19;20014;-66
2023/05/23 19:40:54;;;;;;;11.93;5.30;;;;;;;;;;13002708;19;20002;-67
2023/05/23 19:45:13;;;;;;;10.98;4.63;;;;;;;;;;13002890;19;20017;-66
2023/05/23 19:49:31;;;;;;;;;;;;;;;;;;13004909;19;20002;-66
2023/05/23 19:53:50;;;;;;;9.50;5.60;;;;;;;;;;13002739;19;19919;-66
2023/05/23 19:58:08;;;;;;;7.78;5.28;;;;;;;;;;13000864;19;20011;-65
2023/05/23 20:02:28;;;;;;;9.88;5.22;;;;;;;;;;13002847;19;20034;-65
2023/05/23 20:06:46;;;;;;;9.73;5.25;;;;;;;;;;13002746;19;20350;-66
2023/05/23 20:11:04;;;;;;;10.65;5.43;;;;;;;;;;13001839;19;20007;-66
2023/05/23 20:15:24;;;;;;;9.23;4.82;;;;;;;;;;13001789;19;20146;-65
2023/05/23 20:19:56;;;;;;;9.38;5.05;;;;;;;;;;13000843;19;20019;-65
2023/05/23 20:24:15;;;;;;;7.63;5.45;;;;;;;;;;13006035;19;20018;-65
2023/05/23 20:28:33;;;;;;;10.85;5.32;;;;;;;;;;13014028;19;20002;-67
2023/05/23 20:32:53;;;;;;;12.23;5.75;;;;;;;;;;13014137;19;19998;-65
2023/05/23 20:37:12;;;;;;;11.30;6.03;;;;;;;;;;13012503;19;20018;-66
2023/05/23 20:41:32;;;;;;;10.13;6.53;;;;;;;;;;13012045;19;20022;-65
2023/05/23 20:45:50;;;;;;;9.18;6.20;;;;;;;;;;13013910;19;20021;-69
2023/05/23 20:50:10;;;;;;;12.57;5.03;;;;;;;;;;13011997;19;20477;-66
2023/05/23 20:54:27;;;;;;;8.05;5.18;;;;;;;;;;13013017;19;20022;-66
2023/05/23 20:58:47;;;;;;;10.02;5.35;;;;;;;;;;13012239;19;20007;-65
2023/05/23 21:03:05;;;;;;;9.38;5.63;;;;;;;;;;13012100;19;20002;-66
2023/05/23 21:07:23;;;;;;;10.23;4.97;;;;;;;;;;13012838;19;20022;-66
2023/05/23 21:11:41;;;;;;;;;;;;;;;;;;13012818;19;20014;-66
2023/05/23 21:16:00;;;;;;;11.63;5.95;;;;;;;;;;13012116;19;19919;-65
2023/05/23 21:20:20;;;;;;;8.88;5.40;;;;;;;;;;13010181;19;20126;-65
2023/05/23 21:24:40;;;;;;;9.65;4.97;;;;;;;;;;13011714;19;20013;-65
2023/05/23 21:28:59;;;;;;;15.95;5.07;;;;;;;;;;13011154;19;20022;-66
2023/05/23 21:33:19;;;;;;;12.30;5.45;;;;;;;;;;13010815;19;20414;-66
2023/05/23 21:37:37;;;;;;;9.30;5.55;;;;;;;;;;13010843;19;20017;-65
2023/05/23 21:41:55;;;;;;;10.10;5.55;;;;;;;;;;13010939;19;20357;-65
2023/05/23 21:46:15;;;;;;;6.35;4.22;;;;;;;;;;13010184;19;20469;-65
2023/05/23 21:50:33;;;;;;;10.38;5.90;;;;;;;;;;13010238;19;20006;-66
2023/05/23 21:54:50;;;;;;;11.63;5.63;;;;;;;;;;13009968;19;20014;-66
2023/05/23 21:59:09;;;;;;;10.32;5.53;;;;;;;;;;13008238;19;20014;-65
2023/05/23 22:03:27;;;;;;;10.15;5.50;;;;;;;;;;13007895;19;20015;-65
2023/05/23 22:07:45;;;;;;;11.80;6.30;;;;;;;;;;13008770;19;20006;-65
2023/05/23 22:12:04;;;;;;;10.00;5.53;;;;;;;;;;13008167;19;20029;-64
2023/05/23 22:16:21;;;;;;;9.48;5.40;;;;;;;;;;13008842;19;20031;-65
2023/05/23 22:20:40;;;;;;;9.80;5.88;;;;;;;;;;13007444;19;20006;-65
2023/05/23 22:24:58;;;;;;;;;;;;;;;;;;13008650;19;20013;-65
2023/05/23 22:29:16;;;;;;;13.07;6.05;;;;;;;;;;13007333;19;19937;-65
2023/05/23 22:33:34;;;;;;;14.63;5.80;;;;;;;;;;13007713;19;20018;-66
2023/05/23 22:37:53;;;;;;;8.75;5.57;;;;;;;;;;13006992;19;20572;-64
2023/05/23 22:42:11;;;;;;;12.27;6.32;;;;;;;;;;13006505;19;20034;-65
2023/05/23 22:46:30;;;;;;;9.30;5.78;;;;;;;;;;13005368;19;20021;-64
2023/05/23 22:50:52;;;;;;;9.60;6.45;;;;;;;;;;13004613;19;20358;-65
2023/05/23 22:55:10;;;;;;;9.38;5.70;;;;;;;;;;13005928;19;20015;-64
2023/05/23 22:59:29;;;;;;;10.10;6.03;;;;;;;;;;13003992;19;20015;-65
2023/05/23 23:03:47;;;;;;;12.82;6.20;;;;;;;;;;13006361;19;20465;-64
2023/05/23 23:08:05;;;;;;;11.75;6.35;;;;;;;;;;13005763;19;20007;-64
2023/05/23 23:12:23;;;;;;;7.68;5.57;;;;;;;;;;13005857;19;20341;-64
2023/05/23 23:16:41;;;;;;;;;;;;;;;;;;13006355;19;20010;-64
2023/05/23 23:20:59;;;;;;;10.38;6.43;;;;;;;;;;13004712;19;19922;-65
2023/05/23 23:25:17;;;;;;;9.40;6.05;;;;;;;;;;13005246;19;20015;-66
2023/05/23 23:29:35;;;;;;;;;;;;;;;;;;13005291;19;20465;-66
2023/05/23 23:33:53;;;;;;;10.05;6.75;;;;;;;;;;13004513;19;19938;-64
2023/05/23 23:38:11;;;;;;;12.88;6.25;;;;;;;;;;13003051;19;20010;-65
2023/05/23 23:42:29;;;;;;;9.43;5.85;;;;;;;;;;13003501;19;20094;-65
2023/05/23 23:46:48;;;;;;;7.85;5.60;;;;;;;;;;13003961;19;20010;-65
2023/05/23 23:51:06;;;;;;;8.70;5.97;;;;;;;;;;13002726;19;20014;-65
2023/05/23 23:55:24;;;;;;;9.93;6.78;;;;;;;;;;13003215;19;21694;-65
2023/05/23 23:59:42;;;;;;;9.70;6.72;;;;;;;;;;13000536;19;20007;-64
